createdAt,value
2018-07-16T00:00:19.641Z,16.80
2018-07-16T00:05:17.026Z,16.80
2018-07-16T00:07:45.634Z,16.70
2018-07-16T00:22:40.483Z,16.60
2018-07-16T00:25:09.498Z,16.20
2018-07-16T00:33:24.140Z,16.20
2018-07-16T00:35:52.631Z,16.20
2018-07-16T00:38:21.074Z,16.20
2018-07-16T00:40:49.523Z,16.20
2018-07-16T00:43:18.553Z,16.30
2018-07-16T00:45:47.046Z,16.20
2018-07-16T00:48:17.381Z,16.30
2018-07-16T00:50:45.913Z,16.30
2018-07-16T00:53:15.501Z,16.30
2018-07-16T00:55:43.964Z,16.30
2018-07-16T00:58:12.482Z,16.30
2018-07-16T01:00:41.869Z,16.20
2018-07-16T01:03:10.384Z,16.20
2018-07-16T01:05:39.270Z,16.20
2018-07-16T01:08:07.758Z,16.20
2018-07-16T01:10:36.277Z,16.20
2018-07-16T01:13:04.873Z,16.30
2018-07-16T01:18:01.479Z,16.20
2018-07-16T01:20:29.986Z,16.20
2018-07-16T01:22:59.730Z,16.20
2018-07-16T01:25:28.195Z,16.20
2018-07-16T01:27:57.221Z,16.20
2018-07-16T01:30:25.726Z,16.20
2018-07-16T01:32:54.231Z,16.20
2018-07-16T01:35:22.730Z,16.20
2018-07-16T01:37:51.206Z,16.30
2018-07-16T01:40:19.676Z,16.30
2018-07-16T01:45:16.714Z,16.30
2018-07-16T01:47:45.167Z,16.30
2018-07-16T01:50:13.704Z,16.20
2018-07-16T01:52:42.191Z,16.20
2018-07-16T01:55:10.655Z,16.20
2018-07-16T01:57:39.159Z,16.20
2018-07-16T02:00:07.728Z,16.20
2018-07-16T02:02:36.189Z,16.20
2018-07-16T02:05:04.746Z,16.20
2018-07-16T02:07:33.216Z,16.20
2018-07-16T02:12:30.383Z,16.20
2018-07-16T02:17:26.991Z,16.20
2018-07-16T02:19:55.511Z,16.10
2018-07-16T02:22:23.996Z,16.10
2018-07-16T02:24:52.705Z,16.20
2018-07-16T02:27:21.205Z,16.20
2018-07-16T02:29:49.720Z,16.20
2018-07-16T02:32:18.761Z,16.20
2018-07-16T02:34:47.355Z,16.20
2018-07-16T02:37:17.431Z,16.20
2018-07-16T02:39:46.393Z,16.20
2018-07-16T02:42:16.542Z,16.20
2018-07-16T02:44:45.020Z,16.30
2018-07-16T02:47:14.398Z,16.30
2018-07-16T02:49:42.905Z,16.30
2018-07-16T02:52:11.399Z,16.30
2018-07-16T02:57:09.192Z,16.20
2018-07-16T02:59:37.725Z,16.10
2018-07-16T03:02:06.387Z,16.10
2018-07-16T03:04:34.925Z,16.10
2018-07-16T03:09:31.746Z,16.10
2018-07-16T03:12:00.291Z,16.10
2018-07-16T03:17:19.754Z,16.00
2018-07-16T03:19:48.293Z,16.00
2018-07-16T03:22:17.391Z,16.00
2018-07-16T03:39:41.527Z,16.00
2018-07-16T03:42:10.067Z,15.70
2018-07-16T03:44:38.565Z,15.70
2018-07-16T03:47:07.102Z,15.70
2018-07-16T03:49:35.591Z,15.80
2018-07-16T03:52:04.102Z,15.80
2018-07-16T03:54:32.588Z,15.80
2018-07-16T03:57:01.270Z,15.90
2018-07-16T03:59:29.762Z,15.90
2018-07-16T04:01:58.474Z,16.00
2018-07-16T04:04:26.992Z,16.10
2018-07-16T04:09:23.667Z,16.20
2018-07-16T04:11:52.169Z,16.20
2018-07-16T04:16:48.834Z,16.20
2018-07-16T04:19:17.817Z,16.30
2018-07-16T04:21:46.278Z,16.20
2018-07-16T04:24:16.434Z,16.20
2018-07-16T04:26:44.973Z,16.20
2018-07-16T04:29:14.172Z,16.20
2018-07-16T04:31:42.726Z,16.20
2018-07-16T04:34:11.242Z,16.30
2018-07-16T04:36:39.774Z,16.30
2018-07-16T04:39:08.256Z,16.30
2018-07-16T04:41:37.634Z,16.30
2018-07-16T04:44:06.158Z,16.50
2018-07-16T04:46:34.646Z,16.70
2018-07-16T04:49:03.162Z,16.90
2018-07-16T04:54:00.033Z,17.30
2018-07-16T04:56:28.555Z,17.50
2018-07-16T04:58:57.329Z,17.50
2018-07-16T05:01:26.246Z,17.60
2018-07-16T05:03:55.124Z,17.60
2018-07-16T05:06:23.667Z,17.50
2018-07-16T05:08:52.170Z,17.50
2018-07-16T05:11:20.651Z,17.30
2018-07-16T05:13:49.112Z,17.30
2018-07-16T05:16:17.691Z,17.10
2018-07-16T05:18:46.352Z,17.20
2018-07-16T05:40:54.866Z,17.10
2018-07-16T05:43:23.355Z,16.20
2018-07-16T05:48:20.052Z,16.20
2018-07-16T05:50:48.606Z,16.20
2018-07-16T05:53:17.466Z,16.20
2018-07-16T05:55:45.941Z,16.20
2018-07-16T06:10:41.591Z,16.20
2018-07-16T06:13:10.125Z,16.00
2018-07-16T06:15:38.658Z,16.00
2018-07-16T06:18:07.336Z,16.10
2018-07-16T06:20:35.837Z,16.20
2018-07-16T06:23:04.358Z,16.30
2018-07-16T06:25:32.838Z,16.40
2018-07-16T06:28:01.988Z,16.40
2018-07-16T06:30:30.478Z,16.50
2018-07-16T06:32:59.077Z,16.60
2018-07-16T06:35:27.647Z,16.70
2018-07-16T06:37:56.096Z,16.80
2018-07-16T06:40:24.690Z,16.90
2018-07-16T06:42:53.862Z,17.00
2018-07-16T06:45:22.573Z,17.00
2018-07-16T06:47:51.092Z,17.10
2018-07-16T06:50:19.659Z,17.20
2018-07-16T06:52:48.207Z,17.20
2018-07-16T06:55:17.499Z,17.30
2018-07-16T06:57:45.974Z,17.40
2018-07-16T07:00:15.876Z,17.30
2018-07-16T07:02:44.426Z,17.40
2018-07-16T07:05:12.926Z,17.60
2018-07-16T07:07:41.382Z,17.60
2018-07-16T07:10:09.875Z,17.60
2018-07-16T07:21:17.510Z,18.20
2018-07-16T07:23:46.031Z,18.50
2018-07-16T07:26:15.567Z,18.80
2018-07-16T07:28:44.033Z,19.00
2018-07-16T07:31:12.586Z,19.10
2018-07-16T07:33:41.074Z,19.30
2018-07-16T07:36:09.695Z,19.20
2018-07-16T07:44:26.905Z,19.10
2018-07-16T07:46:55.396Z,19.20
2018-07-16T07:49:24.254Z,19.50
2018-07-16T07:51:53.271Z,20.00
2018-07-16T07:54:21.892Z,20.70
2018-07-16T07:56:50.261Z,23.30
2018-07-16T07:59:18.830Z,26.40
2018-07-16T08:01:48.079Z,29.20
2018-07-16T08:04:17.461Z,30.70
2018-07-16T08:06:51.724Z,32.90
2018-07-16T08:09:21.050Z,32.10
2018-07-16T08:11:49.591Z,32.20
2018-07-16T08:14:19.738Z,30.60
2018-07-16T08:16:48.249Z,28.70
2018-07-16T08:19:17.496Z,27.10
2018-07-16T08:21:46.094Z,26.50
2018-07-16T08:24:17.613Z,26.30
2018-07-16T08:26:46.110Z,25.70
2018-07-16T08:41:41.886Z,27.50
2018-07-16T08:44:10.422Z,31.80
2018-07-16T08:46:39.367Z,32.50
2018-07-16T08:49:08.027Z,33.50
2018-07-16T08:51:36.531Z,36.30
2018-07-16T08:54:05.321Z,37.30
2018-07-16T08:56:33.826Z,37.30
2018-07-16T08:59:03.187Z,36.90
2018-07-16T09:01:31.731Z,34.30
2018-07-16T09:06:28.427Z,31.60
2018-07-16T09:11:25.478Z,30.90
2018-07-16T09:13:54.016Z,30.20
2018-07-16T09:16:22.542Z,30.00
2018-07-16T09:18:51.359Z,29.40
2018-07-16T09:21:21.577Z,29.00
2018-07-16T09:23:50.039Z,29.00
2018-07-16T09:28:46.746Z,29.20
2018-07-16T09:31:16.446Z,31.90
2018-07-16T09:33:44.993Z,35.00
2018-07-16T09:38:43.902Z,39.00
2018-07-16T09:41:12.435Z,40.10
2018-07-16T09:43:41.483Z,40.60
2018-07-16T09:46:10.776Z,41.00
2018-07-16T09:51:07.690Z,42.30
2018-07-16T09:56:05.157Z,42.60
2018-07-16T09:58:33.622Z,42.10
2018-07-16T10:01:07.427Z,42.30
2018-07-16T10:03:36.967Z,42.70
2018-07-16T10:06:05.838Z,42.40
2018-07-16T10:08:35.381Z,42.20
2018-07-16T10:11:03.955Z,41.30
2018-07-16T10:13:32.444Z,39.80
2018-07-16T10:16:01.239Z,38.00
2018-07-16T10:18:29.772Z,35.60
2018-07-16T10:20:58.282Z,34.40
2018-07-16T10:23:26.768Z,32.80
2018-07-16T10:25:55.417Z,31.80
2018-07-16T10:28:23.847Z,30.80
2018-07-16T10:30:52.293Z,30.30
2018-07-16T10:33:20.928Z,29.90
2018-07-16T10:35:49.527Z,29.80
2018-07-16T10:38:17.983Z,29.10
2018-07-16T10:40:46.575Z,28.80
2018-07-16T10:43:16.450Z,28.40
2018-07-16T10:45:45.095Z,28.30
2018-07-16T10:48:15.816Z,27.90
2018-07-16T10:50:45.386Z,27.50
2018-07-16T10:53:15.482Z,27.40
2018-07-16T10:55:44.932Z,27.20
2018-07-16T10:58:13.405Z,27.20
2018-07-16T11:00:41.895Z,27.30
2018-07-16T11:03:10.603Z,27.30
2018-07-16T11:05:39.005Z,27.20
2018-07-16T11:08:07.537Z,27.10
2018-07-16T11:10:36.323Z,27.10
2018-07-16T11:15:33.054Z,27.20
2018-07-16T11:18:01.834Z,27.30
2018-07-16T11:20:31.319Z,27.40
2018-07-16T11:22:59.966Z,27.40
2018-07-16T11:25:28.529Z,27.00
2018-07-16T11:27:56.981Z,27.00
2018-07-16T11:32:53.692Z,27.10
2018-07-16T11:35:22.216Z,27.30
2018-07-16T11:37:50.814Z,27.40
2018-07-16T11:40:19.309Z,27.40
2018-07-16T11:42:47.753Z,27.40
2018-07-16T11:45:17.324Z,27.40
2018-07-16T11:47:45.942Z,27.40
2018-07-16T11:50:15.633Z,27.50
2018-07-16T11:52:44.463Z,27.50
2018-07-16T11:55:13.271Z,27.40
2018-07-16T12:00:09.879Z,27.10
2018-07-16T12:08:24.535Z,27.10
2018-07-16T12:10:53.035Z,27.20
2018-07-16T12:13:21.476Z,27.40
2018-07-16T12:15:49.982Z,27.40
2018-07-16T12:18:18.458Z,27.50
2018-07-16T12:20:46.933Z,27.30
2018-07-16T12:23:16.412Z,27.40
2018-07-16T12:25:44.868Z,27.40
2018-07-16T12:28:13.325Z,27.30
2018-07-16T12:30:42.014Z,27.20
2018-07-16T12:33:10.526Z,27.10
2018-07-16T12:35:39.739Z,27.00
2018-07-16T12:38:08.798Z,27.10
2018-07-16T12:40:37.402Z,27.30
2018-07-16T12:43:06.020Z,27.50
2018-07-16T12:45:34.851Z,27.80
2018-07-16T12:50:31.629Z,27.80
2018-07-16T12:55:29.120Z,27.90
2018-07-16T12:57:57.567Z,27.80
2018-07-16T13:00:26.220Z,27.80
2018-07-16T13:02:54.662Z,27.90
2018-07-16T13:05:23.103Z,27.90
2018-07-16T13:07:51.828Z,27.90
2018-07-16T13:10:20.254Z,27.90
2018-07-16T13:12:48.698Z,27.90
2018-07-16T13:15:17.350Z,28.00
2018-07-16T13:17:45.802Z,28.20
2018-07-16T13:20:15.694Z,28.30
2018-07-16T13:22:44.586Z,28.30
2018-07-16T13:25:13.832Z,28.30
2018-07-16T13:27:42.310Z,28.50
2018-07-16T13:30:11.263Z,28.80
2018-07-16T13:32:39.704Z,29.20
2018-07-16T13:35:08.176Z,29.30
2018-07-16T13:37:36.645Z,29.30
2018-07-16T13:40:05.142Z,29.50
2018-07-16T13:42:33.821Z,29.20
2018-07-16T13:45:02.947Z,29.10
2018-07-16T13:47:31.426Z,29.10
2018-07-16T13:49:59.891Z,29.30
2018-07-16T13:52:28.526Z,29.40
2018-07-16T13:54:58.149Z,29.60
2018-07-16T13:57:26.615Z,29.50
2018-07-16T13:59:55.082Z,29.40
2018-07-16T14:02:23.537Z,29.30
2018-07-16T14:09:48.640Z,29.20
2018-07-16T14:12:17.476Z,28.90
2018-07-16T14:14:45.899Z,28.80
2018-07-16T14:17:15.458Z,28.70
2018-07-16T14:19:43.932Z,28.60
2018-07-16T14:22:12.449Z,28.50
2018-07-16T14:24:40.884Z,28.40
2018-07-16T14:27:09.350Z,28.30
2018-07-16T14:29:38.645Z,28.30
2018-07-16T14:32:08.329Z,28.40
2018-07-16T14:34:36.963Z,28.50
2018-07-16T14:39:33.951Z,28.60
2018-07-16T14:42:02.303Z,28.30
2018-07-16T14:44:30.790Z,28.20
2018-07-16T14:46:59.305Z,28.00
2018-07-16T14:49:28.783Z,27.90
2018-07-16T14:51:57.343Z,27.70
2018-07-16T14:54:25.831Z,27.60
2018-07-16T14:56:55.424Z,27.60
2018-07-16T14:59:24.052Z,27.70
2018-07-16T15:01:52.582Z,27.70
2018-07-16T15:04:21.238Z,27.50
2018-07-16T15:06:49.754Z,27.30
2018-07-16T15:09:18.222Z,27.20
2018-07-16T15:11:46.702Z,27.10
2018-07-16T15:35:16.530Z,27.00
2018-07-16T15:37:45.050Z,26.60
2018-07-16T15:42:42.652Z,26.80
2018-07-16T15:45:11.219Z,27.00
2018-07-16T15:47:40.426Z,26.90
2018-07-16T15:52:37.668Z,26.80
2018-07-16T15:55:06.297Z,26.70
2018-07-16T15:57:35.460Z,26.60
2018-07-16T16:00:04.146Z,26.50
2018-07-16T16:02:32.619Z,26.40
2018-07-16T16:05:01.086Z,26.30
2018-07-16T16:07:31.957Z,26.10
2018-07-16T16:10:02.025Z,25.90
2018-07-16T16:14:59.962Z,25.50
2018-07-16T16:17:28.514Z,25.40
2018-07-16T16:19:57.072Z,25.30
2018-07-16T16:22:25.672Z,25.30
2018-07-16T16:24:54.874Z,25.20
2018-07-16T16:27:23.380Z,25.20
2018-07-16T16:29:51.894Z,25.10
2018-07-16T16:32:20.374Z,25.00
2018-07-16T16:34:48.888Z,25.00
2018-07-16T16:37:17.920Z,25.00
2018-07-16T16:42:15.252Z,25.50
2018-07-16T16:44:43.806Z,25.70
2018-07-16T16:47:12.324Z,25.90
2018-07-16T16:49:41.093Z,26.30
2018-07-16T16:52:09.865Z,26.50
2018-07-16T17:00:24.360Z,26.70
2018-07-16T17:02:52.854Z,26.70
2018-07-16T17:07:49.534Z,26.60
2018-07-16T17:10:18.120Z,26.40
2018-07-16T17:12:46.632Z,26.20
2018-07-16T17:33:48.244Z,25.90
2018-07-16T17:36:17.646Z,25.60
2018-07-16T17:38:46.292Z,24.70
2018-07-16T17:59:02.999Z,24.60
2018-07-16T18:01:32.059Z,24.50
2018-07-16T18:04:00.898Z,24.20
2018-07-16T18:06:30.236Z,24.20
2018-07-16T18:08:58.942Z,24.20
2018-07-16T18:11:27.611Z,24.20
2018-07-16T18:13:56.222Z,24.20
2018-07-16T18:16:25.380Z,24.20
2018-07-16T18:18:54.020Z,24.10
2018-07-16T18:21:22.607Z,24.20
2018-07-16T18:26:19.399Z,24.20
2018-07-16T18:28:47.943Z,24.20
2018-07-16T18:31:16.892Z,24.10
2018-07-16T18:38:45.858Z,23.70
2018-07-16T18:41:15.539Z,23.50
2018-07-16T18:43:44.466Z,23.40
2018-07-16T18:46:13.062Z,23.30
2018-07-16T18:48:41.555Z,23.30
2018-07-16T18:51:10.137Z,23.20
2018-07-16T18:53:38.684Z,23.10
2018-07-16T18:56:09.747Z,23.10
2018-07-16T18:58:38.983Z,23.10
2018-07-16T19:01:07.908Z,23.10
2018-07-16T19:03:37.488Z,23.00
2018-07-16T19:06:06.648Z,23.10
2018-07-16T19:08:35.188Z,23.00
2018-07-16T19:11:03.929Z,22.90
2018-07-16T19:13:32.446Z,22.90
2018-07-16T19:16:01.082Z,22.80
2018-07-16T19:18:30.579Z,22.70
2018-07-16T19:20:59.150Z,22.60
2018-07-16T19:23:29.111Z,22.60
2018-07-16T19:25:57.771Z,22.50
2018-07-16T19:28:28.206Z,22.40
2018-07-16T19:30:57.054Z,22.40
2018-07-16T19:33:25.574Z,22.30
2018-07-16T19:35:54.136Z,22.30
2018-07-16T19:38:22.671Z,22.30
2018-07-16T19:40:51.247Z,22.20
2018-07-16T19:43:20.640Z,22.20
2018-07-16T19:45:49.212Z,22.10
2018-07-16T19:48:17.846Z,22.00
2018-07-16T20:02:17.602Z,21.70
2018-07-16T20:15:16.837Z,21.60
2018-07-16T20:17:46.049Z,21.50
2018-07-16T20:20:15.552Z,21.00
2018-07-16T20:22:44.152Z,20.90
2018-07-16T20:27:41.712Z,20.90
2018-07-16T20:30:10.682Z,20.90
2018-07-16T20:32:39.361Z,20.90
2018-07-16T20:35:08.061Z,20.80
2018-07-16T20:37:37.161Z,20.80
2018-07-16T20:40:05.709Z,20.80
2018-07-16T20:44:54.801Z,20.70
2018-07-16T20:47:23.336Z,20.70
2018-07-16T20:49:52.377Z,20.70
2018-07-16T20:52:20.962Z,20.70
2018-07-16T20:54:49.862Z,20.60
2018-07-16T20:57:18.543Z,20.50
2018-07-16T20:59:47.765Z,20.40
2018-07-16T21:02:16.466Z,20.30
2018-07-16T21:04:44.974Z,20.30
2018-07-16T21:09:42.901Z,20.20
2018-07-16T21:12:11.403Z,20.10
2018-07-16T21:14:39.914Z,20.10
2018-07-16T21:17:08.502Z,20.20
2018-07-16T21:19:37.014Z,20.20
2018-07-16T21:22:05.897Z,20.20
2018-07-16T21:24:34.383Z,20.10
2018-07-16T21:27:02.854Z,19.90
2018-07-16T21:31:59.838Z,19.90
2018-07-16T21:34:28.310Z,19.80
2018-07-16T21:36:56.845Z,19.80
2018-07-16T21:39:25.298Z,19.70
2018-07-16T21:41:53.767Z,19.60
2018-07-16T21:44:23.486Z,19.60
2018-07-16T21:46:51.983Z,19.50
2018-07-16T21:49:20.446Z,19.50
2018-07-16T21:51:49.040Z,19.40
2018-07-16T21:54:17.546Z,19.40
2018-07-16T21:56:46.011Z,19.20
2018-07-16T21:59:15.531Z,19.20
2018-07-16T22:01:44.058Z,19.10
2018-07-16T22:04:12.575Z,19.00
2018-07-16T22:06:41.731Z,19.00
2018-07-16T22:09:11.042Z,18.80
2018-07-16T22:11:39.549Z,18.80
2018-07-16T22:14:08.043Z,18.80
2018-07-16T22:19:05.090Z,18.90
2018-07-16T22:21:33.673Z,18.90
2018-07-16T22:24:02.192Z,18.90
2018-07-16T22:26:30.778Z,19.00
2018-07-16T22:28:59.680Z,18.90
2018-07-16T22:31:28.234Z,18.90
2018-07-16T22:33:56.761Z,18.80
2018-07-16T22:36:25.278Z,18.80
2018-07-16T22:38:53.726Z,18.80
2018-07-16T22:41:22.211Z,18.80
2018-07-16T22:43:50.814Z,18.80
2018-07-16T22:46:19.286Z,18.80
2018-07-16T22:48:47.757Z,18.70
2018-07-16T22:53:45.201Z,18.80
2018-07-16T22:56:14.609Z,18.70
2018-07-16T22:58:43.175Z,18.60
2018-07-16T23:01:11.629Z,18.60
2018-07-16T23:03:40.103Z,18.60
2018-07-16T23:06:08.843Z,18.50
2018-07-16T23:08:37.384Z,18.40
2018-07-16T23:11:06.430Z,18.40
2018-07-16T23:13:35.098Z,18.30
2018-07-16T23:16:03.589Z,18.20
2018-07-16T23:18:32.083Z,18.20
2018-07-16T23:21:00.584Z,18.10
2018-07-16T23:23:29.043Z,18.20
2018-07-16T23:25:57.527Z,18.10
2018-07-16T23:28:26.080Z,18.20
2018-07-16T23:30:54.607Z,18.10
2018-07-16T23:33:23.106Z,18.20
2018-07-16T23:35:52.122Z,18.30
2018-07-16T23:38:20.652Z,18.30
2018-07-16T23:40:49.126Z,18.20
2018-07-16T23:43:17.634Z,18.10
2018-07-16T23:45:46.075Z,18.10
